createdAt,value
2022-09-09T00:00:35.620Z,12.73
2022-09-09T00:03:49.542Z,12.81
2022-09-09T00:07:04.489Z,12.86
2022-09-09T00:10:21.958Z,12.88
2022-09-09T00:13:34.067Z,12.88
2022-09-09T00:16:43.994Z,12.89
2022-09-09T00:19:56.189Z,12.85
2022-09-09T00:23:07.545Z,12.94
2022-09-09T00:26:21.555Z,12.93
2022-09-09T00:29:36.596Z,12.89
2022-09-09T00:32:42.353Z,12.97
2022-09-09T00:35:51.965Z,12.95
2022-09-09T00:38:59.870Z,13.00
2022-09-09T00:42:16.857Z,13.02
2022-09-09T00:45:46.850Z,13.02
2022-09-09T00:49:00.497Z,13.08
2022-09-09T00:52:20.413Z,13.11
2022-09-09T00:55:35.524Z,13.17
2022-09-09T00:58:40.902Z,13.14
2022-09-09T01:01:46.270Z,13.17
2022-09-09T01:04:51.943Z,13.19
2022-09-09T01:08:00.910Z,13.18
2022-09-09T01:11:07.046Z,13.16
2022-09-09T01:14:27.189Z,13.21
2022-09-09T01:17:52.750Z,13.25
2022-09-09T01:21:10.033Z,13.31
2022-09-09T01:24:28.065Z,13.29
2022-09-09T01:28:03.327Z,13.26
2022-09-09T01:31:13.425Z,13.28
2022-09-09T01:34:25.040Z,13.31
2022-09-09T01:37:30.415Z,13.28
2022-09-09T01:40:36.379Z,13.31
2022-09-09T01:43:43.387Z,13.32
2022-09-09T01:46:48.804Z,13.34
2022-09-09T01:49:56.778Z,13.37
2022-09-09T01:53:06.804Z,13.39
2022-09-09T01:56:25.066Z,13.38
2022-09-09T01:59:48.246Z,13.42
2022-09-09T02:03:02.846Z,13.44
2022-09-09T02:06:33.277Z,13.44
2022-09-09T02:09:53.588Z,13.45
2022-09-09T02:13:03.650Z,13.42
2022-09-09T02:16:17.883Z,13.46
2022-09-09T02:19:28.168Z,13.48
2022-09-09T02:22:42.501Z,13.48
2022-09-09T02:25:48.642Z,13.49
2022-09-09T02:29:01.895Z,13.51
2022-09-09T02:32:11.266Z,13.54
2022-09-09T02:35:22.040Z,13.56
2022-09-09T02:38:29.697Z,13.57
2022-09-09T02:41:44.762Z,13.58
2022-09-09T02:44:50.781Z,13.61
2022-09-09T02:48:03.399Z,13.58
2022-09-09T02:51:16.088Z,13.65
2022-09-09T02:54:29.761Z,13.71
2022-09-09T02:57:36.200Z,13.73
2022-09-09T03:00:43.859Z,13.73
2022-09-09T03:03:50.526Z,13.72
2022-09-09T03:06:57.282Z,13.76
2022-09-09T03:10:03.189Z,13.79
2022-09-09T03:13:09.001Z,13.82
2022-09-09T03:16:18.859Z,13.85
2022-09-09T03:19:28.935Z,13.85
2022-09-09T03:22:34.327Z,13.86
2022-09-09T03:25:40.306Z,13.91
2022-09-09T03:28:45.811Z,13.91
2022-09-09T03:31:54.327Z,13.91
2022-09-09T03:35:02.834Z,13.89
2022-09-09T03:38:10.458Z,13.92
2022-09-09T03:41:15.936Z,13.96
2022-09-09T03:44:21.861Z,13.98
2022-09-09T03:47:27.844Z,14.00
2022-09-09T03:50:42.074Z,14.05
2022-09-09T03:53:47.497Z,14.05
2022-09-09T03:56:54.673Z,14.02
2022-09-09T04:00:02.124Z,14.01
2022-09-09T04:03:17.057Z,14.02
2022-09-09T04:06:23.710Z,14.02
2022-09-09T04:09:29.030Z,14.06
2022-09-09T04:12:35.757Z,14.08
2022-09-09T04:15:41.139Z,14.11
2022-09-09T04:18:46.758Z,14.14
2022-09-09T04:21:55.725Z,14.14
2022-09-09T04:25:02.204Z,14.15
2022-09-09T04:28:08.870Z,14.18
2022-09-09T04:31:19.628Z,14.22
2022-09-09T04:34:26.719Z,14.22
2022-09-09T04:37:35.038Z,14.25
2022-09-09T04:40:41.623Z,14.27
2022-09-09T04:43:46.999Z,14.30
2022-09-09T04:46:53.881Z,14.33
2022-09-09T04:50:01.366Z,14.33
2022-09-09T04:53:09.461Z,14.38
2022-09-09T04:56:18.313Z,14.40
2022-09-09T04:59:31.223Z,14.41
2022-09-09T05:02:40.688Z,14.40
2022-09-09T05:05:46.121Z,14.37
2022-09-09T05:08:52.878Z,14.42
2022-09-09T05:12:03.673Z,14.43
2022-09-09T05:15:15.375Z,14.49
2022-09-09T05:18:21.254Z,14.51
2022-09-09T05:21:27.390Z,14.55
2022-09-09T05:24:34.513Z,14.59
2022-09-09T05:27:42.096Z,14.61
2022-09-09T05:30:47.974Z,14.62
2022-09-09T05:33:53.419Z,14.61
2022-09-09T05:36:59.373Z,14.51
2022-09-09T05:40:09.492Z,14.56
2022-09-09T05:43:18.309Z,14.54
2022-09-09T05:46:26.193Z,14.56
2022-09-09T05:49:33.171Z,14.61
2022-09-09T05:52:39.569Z,14.61
2022-09-09T05:55:46.989Z,14.58
2022-09-09T05:58:52.735Z,14.63
2022-09-09T06:01:58.239Z,14.64
2022-09-09T06:05:13.831Z,14.63
2022-09-09T06:08:19.946Z,14.63
2022-09-09T06:11:28.849Z,14.68
2022-09-09T06:14:34.227Z,14.71
2022-09-09T06:17:42.742Z,14.70
2022-09-09T06:20:57.911Z,14.77
2022-09-09T06:24:04.504Z,14.71
2022-09-09T06:27:11.764Z,14.75
2022-09-09T06:30:18.339Z,14.77
2022-09-09T06:33:24.327Z,14.79
2022-09-09T06:36:32.036Z,14.86
2022-09-09T06:39:37.359Z,14.85
2022-09-09T06:42:44.801Z,14.95
2022-09-09T06:46:11.006Z,15.10
2022-09-09T06:49:18.015Z,15.20
2022-09-09T06:52:23.232Z,15.33
2022-09-09T06:55:29.927Z,15.59
2022-09-09T06:58:37.128Z,15.99
2022-09-09T07:01:45.064Z,15.76
2022-09-09T07:04:52.670Z,15.70
2022-09-09T07:07:59.563Z,15.65
2022-09-09T07:11:10.323Z,15.54
2022-09-09T07:14:20.747Z,15.58
2022-09-09T07:17:31.188Z,15.62
2022-09-09T07:20:39.279Z,15.50
2022-09-09T07:23:45.198Z,15.31
2022-09-09T07:26:51.201Z,15.28
2022-09-09T07:29:58.441Z,15.33
2022-09-09T07:33:04.718Z,15.44
2022-09-09T07:36:17.138Z,15.49
2022-09-09T07:39:22.712Z,15.45
2022-09-09T07:42:31.584Z,15.35
2022-09-09T07:45:39.031Z,15.32
2022-09-09T07:48:46.842Z,15.40
2022-09-09T07:52:12.596Z,15.52
2022-09-09T07:55:21.982Z,15.65
2022-09-09T07:58:27.973Z,15.74
2022-09-09T08:01:40.138Z,15.57
2022-09-09T08:04:47.387Z,15.59
2022-09-09T08:07:54.398Z,15.49
2022-09-09T08:11:10.054Z,15.61
2022-09-09T08:14:16.241Z,15.75
2022-09-09T08:17:23.196Z,15.70
2022-09-09T08:20:29.917Z,15.65
2022-09-09T08:23:37.281Z,15.72
2022-09-09T08:26:44.414Z,15.77
2022-09-09T08:29:50.720Z,15.75
2022-09-09T08:32:58.030Z,15.77
2022-09-09T08:36:04.017Z,15.61
2022-09-09T08:39:11.341Z,15.70
2022-09-09T08:42:40.386Z,15.86
2022-09-09T08:45:53.017Z,15.96
2022-09-09T08:49:04.778Z,16.09
2022-09-09T08:52:19.781Z,16.16
2022-09-09T08:55:39.859Z,15.97
2022-09-09T08:58:50.890Z,16.03
2022-09-09T09:02:06.884Z,16.04
2022-09-09T09:05:30.122Z,16.11
2022-09-09T09:08:42.476Z,16.19
2022-09-09T09:11:52.154Z,16.02
2022-09-09T09:14:59.850Z,16.19
2022-09-09T09:18:06.265Z,16.04
2022-09-09T09:21:16.783Z,16.10
2022-09-09T09:24:24.599Z,15.82
2022-09-09T09:27:35.125Z,16.04
2022-09-09T09:30:48.998Z,16.06
2022-09-09T09:33:56.701Z,16.09
2022-09-09T09:37:18.100Z,15.93
2022-09-09T09:40:25.311Z,16.12
2022-09-09T09:43:32.602Z,15.93
2022-09-09T09:46:41.671Z,16.05
2022-09-09T09:49:55.230Z,16.10
2022-09-09T09:53:06.361Z,16.10
2022-09-09T09:56:17.370Z,15.96
2022-09-09T09:59:39.493Z,15.84
2022-09-09T10:02:52.965Z,15.82
2022-09-09T10:06:02.814Z,15.82
2022-09-09T10:09:25.386Z,15.95
2022-09-09T10:12:43.285Z,15.80
2022-09-09T10:16:03.291Z,15.88
2022-09-09T10:19:17.916Z,15.95
2022-09-09T10:22:29.376Z,15.88
2022-09-09T10:25:51.819Z,15.70
2022-09-09T10:29:25.760Z,15.85
2022-09-09T10:32:53.104Z,15.88
2022-09-09T10:36:08.160Z,15.94
2022-09-09T10:39:28.046Z,15.82
2022-09-09T10:42:35.676Z,15.84
2022-09-09T10:45:51.837Z,15.73
2022-09-09T10:49:11.718Z,15.76
2022-09-09T10:52:22.327Z,15.79
2022-09-09T10:55:37.102Z,15.83
2022-09-09T10:58:49.569Z,15.84
2022-09-09T11:02:00.313Z,15.87
2022-09-09T11:05:09.582Z,15.80
2022-09-09T11:08:20.318Z,15.76
2022-09-09T11:11:32.901Z,15.71
2022-09-09T11:14:45.658Z,15.68
2022-09-09T11:17:55.635Z,15.76
2022-09-09T11:21:04.363Z,15.89
2022-09-09T11:24:15.278Z,16.04
2022-09-09T11:27:25.948Z,16.10
2022-09-09T11:30:55.539Z,16.16
2022-09-09T11:34:15.225Z,16.15
2022-09-09T11:37:39.105Z,16.27
2022-09-09T11:40:44.631Z,16.06
2022-09-09T11:43:53.053Z,16.23
2022-09-09T11:46:59.939Z,16.23
2022-09-09T11:50:35.446Z,16.21
2022-09-09T11:53:52.092Z,16.16
2022-09-09T11:56:57.615Z,16.13
2022-09-09T12:00:03.870Z,16.22
2022-09-09T12:03:43.525Z,16.18
2022-09-09T12:06:53.410Z,16.22
2022-09-09T12:10:02.702Z,16.18
2022-09-09T12:13:18.706Z,16.29
2022-09-09T12:16:35.857Z,16.27
2022-09-09T12:19:43.090Z,16.38
2022-09-09T12:23:02.530Z,16.47
2022-09-09T12:26:26.592Z,16.25
2022-09-09T12:29:40.790Z,16.32
2022-09-09T12:32:46.592Z,16.33
2022-09-09T12:35:57.904Z,16.30
2022-09-09T12:39:20.446Z,16.31
2022-09-09T12:42:26.460Z,16.26
2022-09-09T12:45:34.358Z,16.27
2022-09-09T12:48:43.077Z,16.43
2022-09-09T12:51:50.291Z,16.36
2022-09-09T12:54:55.865Z,16.29
2022-09-09T12:58:01.487Z,16.47
2022-09-09T13:01:09.364Z,16.45
2022-09-09T13:04:23.499Z,16.54
2022-09-09T13:07:30.533Z,16.50
2022-09-09T13:10:52.412Z,16.17
2022-09-09T13:14:00.033Z,16.35
2022-09-09T13:17:07.147Z,16.25
2022-09-09T13:20:19.545Z,16.21
2022-09-09T13:23:30.576Z,16.14
2022-09-09T13:26:37.062Z,16.19
2022-09-09T13:29:42.390Z,16.21
2022-09-09T13:32:48.022Z,16.34
2022-09-09T13:35:57.202Z,16.16
2022-09-09T13:39:05.642Z,16.14
2022-09-09T13:42:28.066Z,16.18
2022-09-09T13:45:35.716Z,16.14
2022-09-09T13:48:42.468Z,16.16
2022-09-09T13:51:51.677Z,16.16
2022-09-09T13:55:00.356Z,16.20
2022-09-09T13:58:07.160Z,16.29
2022-09-09T14:01:15.171Z,16.34
2022-09-09T14:04:22.167Z,16.30
2022-09-09T14:07:27.657Z,16.36
2022-09-09T14:10:36.987Z,16.07
2022-09-09T14:13:42.755Z,16.12
2022-09-09T14:16:48.378Z,16.06
2022-09-09T14:19:54.045Z,16.07
2022-09-09T14:23:03.420Z,15.97
2022-09-09T14:26:10.719Z,16.23
2022-09-09T14:29:15.910Z,16.33
2022-09-09T14:32:21.541Z,16.30
2022-09-09T14:35:27.251Z,16.23
2022-09-09T14:38:34.634Z,16.13
2022-09-09T14:41:41.411Z,16.10
2022-09-09T14:44:46.887Z,15.85
2022-09-09T14:47:52.621Z,15.81
2022-09-09T14:50:57.938Z,15.92
2022-09-09T14:54:04.148Z,15.92
2022-09-09T14:57:10.873Z,15.91
2022-09-09T15:00:17.133Z,15.89
2022-09-09T15:03:23.038Z,15.94
2022-09-09T15:06:30.968Z,15.93
2022-09-09T15:09:38.253Z,15.84
2022-09-09T15:12:44.938Z,15.83
2022-09-09T15:15:51.216Z,15.79
2022-09-09T15:19:00.128Z,15.60
2022-09-09T15:22:08.454Z,15.57
2022-09-09T15:25:14.102Z,15.63
2022-09-09T15:28:20.723Z,15.61
2022-09-09T15:31:30.313Z,15.66
2022-09-09T15:34:35.879Z,15.57
2022-09-09T15:37:41.112Z,15.58
2022-09-09T15:40:47.955Z,15.63
2022-09-09T15:43:57.841Z,15.63
2022-09-09T15:47:03.283Z,15.59
2022-09-09T15:50:09.133Z,15.54
2022-09-09T15:53:16.622Z,15.58
2022-09-09T15:56:21.888Z,15.52
2022-09-09T15:59:31.143Z,15.47
2022-09-09T16:02:38.065Z,15.52
2022-09-09T16:05:45.243Z,15.48
2022-09-09T16:08:52.794Z,15.51
2022-09-09T16:12:00.131Z,15.32
2022-09-09T16:15:08.676Z,15.42
2022-09-09T16:18:16.468Z,15.43
2022-09-09T16:21:25.149Z,15.44
2022-09-09T16:24:31.194Z,15.43
2022-09-09T16:27:36.842Z,15.44
2022-09-09T16:30:44.231Z,15.36
2022-09-09T16:33:51.440Z,15.35
2022-09-09T16:36:57.166Z,15.34
2022-09-09T16:40:04.357Z,15.21
2022-09-09T16:43:10.159Z,15.28
2022-09-09T16:46:19.377Z,15.27
2022-09-09T16:49:24.804Z,15.16
2022-09-09T16:52:30.066Z,15.16
2022-09-09T16:55:35.369Z,15.08
2022-09-09T16:58:40.979Z,15.07
2022-09-09T17:01:50.435Z,15.02
2022-09-09T17:04:55.738Z,15.00
2022-09-09T17:08:01.110Z,14.98
2022-09-09T17:11:06.875Z,15.01
2022-09-09T17:14:17.362Z,14.98
2022-09-09T17:17:31.788Z,14.94
2022-09-09T17:20:46.379Z,14.82
2022-09-09T17:23:53.072Z,14.80
2022-09-09T17:26:58.865Z,14.88
2022-09-09T17:30:04.891Z,14.86
2022-09-09T17:33:14.530Z,14.78
2022-09-09T17:36:23.904Z,14.76
2022-09-09T17:39:29.949Z,14.75
2022-09-09T17:42:35.392Z,14.72
2022-09-09T17:45:41.053Z,14.70
2022-09-09T17:48:47.720Z,14.63
2022-09-09T17:51:54.069Z,14.63
2022-09-09T17:54:59.302Z,14.58
2022-09-09T17:58:04.789Z,14.51
2022-09-09T18:01:13.739Z,14.48
2022-09-09T18:04:21.502Z,14.44
2022-09-09T18:07:27.075Z,14.40
2022-09-09T18:10:32.844Z,14.40
2022-09-09T18:13:38.588Z,14.35
2022-09-09T18:16:44.284Z,14.34
2022-09-09T18:19:51.438Z,14.38
2022-09-09T18:22:56.674Z,14.35
2022-09-09T18:26:01.887Z,14.33
2022-09-09T18:29:11.169Z,14.24
2022-09-09T18:32:17.175Z,14.24
2022-09-09T18:35:23.923Z,14.22
2022-09-09T18:38:29.158Z,14.20
2022-09-09T18:41:37.256Z,14.20
2022-09-09T18:44:43.280Z,14.16
2022-09-09T18:47:49.985Z,14.10
2022-09-09T18:50:57.973Z,14.08
2022-09-09T18:54:09.449Z,14.06
2022-09-09T18:57:14.942Z,14.11
2022-09-09T19:00:20.422Z,14.04
2022-09-09T19:03:27.226Z,14.00
2022-09-09T19:06:38.178Z,14.03
2022-09-09T19:09:43.782Z,13.99
2022-09-09T19:12:49.518Z,13.91
2022-09-09T19:15:55.834Z,13.86
2022-09-09T19:19:04.362Z,13.84
2022-09-09T19:22:12.844Z,13.86
2022-09-09T19:25:18.502Z,13.84
2022-09-09T19:28:23.718Z,13.77
2022-09-09T19:31:30.349Z,13.73
2022-09-09T19:34:36.722Z,13.76
2022-09-09T19:37:43.340Z,13.74
2022-09-09T19:40:49.611Z,13.67
2022-09-09T19:44:01.799Z,13.67
2022-09-09T19:47:07.341Z,13.69
2022-09-09T19:50:14.329Z,13.62
2022-09-09T19:53:21.141Z,13.63
2022-09-09T19:56:28.635Z,13.59
2022-09-09T19:59:33.936Z,13.48
2022-09-09T20:02:39.771Z,13.43
2022-09-09T20:05:45.118Z,13.38
2022-09-09T20:08:52.090Z,13.25
2022-09-09T20:11:57.780Z,13.20
2022-09-09T20:15:03.104Z,13.13
2022-09-09T20:18:09.719Z,13.17
2022-09-09T20:21:20.650Z,13.16
2022-09-09T20:24:27.554Z,13.17
2022-09-09T20:27:33.402Z,13.09
2022-09-09T20:30:38.656Z,12.99
2022-09-09T20:33:45.602Z,12.97
2022-09-09T20:36:51.739Z,13.01
2022-09-09T20:39:58.529Z,13.01
2022-09-09T20:43:03.953Z,12.95
2022-09-09T20:46:09.932Z,12.90
2022-09-09T20:49:17.224Z,12.85
2022-09-09T20:52:23.656Z,12.83
2022-09-09T20:55:32.611Z,12.82
2022-09-09T20:58:38.576Z,12.83
2022-09-09T21:01:43.953Z,12.76
2022-09-09T21:04:49.319Z,12.82
2022-09-09T21:07:56.837Z,12.72
2022-09-09T21:11:04.085Z,12.72
2022-09-09T21:14:09.843Z,12.67
2022-09-09T21:17:15.378Z,12.65
2022-09-09T21:20:21.330Z,12.64
2022-09-09T21:23:27.922Z,12.66
2022-09-09T21:26:35.797Z,12.63
2022-09-09T21:29:41.014Z,12.55
2022-09-09T21:32:46.259Z,12.56
2022-09-09T21:35:52.621Z,12.58
2022-09-09T21:38:59.391Z,12.54
2022-09-09T21:42:06.483Z,12.44
2022-09-09T21:45:12.523Z,12.38
2022-09-09T21:48:20.053Z,12.39
2022-09-09T21:51:26.057Z,12.43
2022-09-09T21:54:32.471Z,12.41
2022-09-09T21:57:39.229Z,12.39
2022-09-09T22:00:45.816Z,12.34
2022-09-09T22:03:51.660Z,12.36
2022-09-09T22:06:56.839Z,12.38
2022-09-09T22:10:02.262Z,12.24
2022-09-09T22:13:09.885Z,12.35
2022-09-09T22:16:19.042Z,12.27
2022-09-09T22:19:25.315Z,12.25
2022-09-09T22:22:30.824Z,12.20
2022-09-09T22:25:38.173Z,12.23
2022-09-09T22:28:44.868Z,12.21
2022-09-09T22:31:53.238Z,12.21
2022-09-09T22:34:58.968Z,12.17
2022-09-09T22:38:04.439Z,12.10
2022-09-09T22:41:11.125Z,12.11
2022-09-09T22:44:17.962Z,12.09
2022-09-09T22:47:23.335Z,12.06
2022-09-09T22:50:29.099Z,12.08
2022-09-09T22:53:36.164Z,12.02
2022-09-09T22:56:41.479Z,12.08
2022-09-09T22:59:48.661Z,12.05
2022-09-09T23:02:54.717Z,12.01
2022-09-09T23:06:04.148Z,11.98
2022-09-09T23:09:11.008Z,11.98
2022-09-09T23:12:20.636Z,11.94
2022-09-09T23:15:28.366Z,11.93
2022-09-09T23:18:33.889Z,11.95
2022-09-09T23:21:41.013Z,11.99
2022-09-09T23:24:46.283Z,11.91
2022-09-09T23:27:51.858Z,11.94
2022-09-09T23:30:58.895Z,11.97
2022-09-09T23:34:05.022Z,11.94
2022-09-09T23:37:11.831Z,11.93
2022-09-09T23:40:17.642Z,11.87
2022-09-09T23:43:24.400Z,11.89
2022-09-09T23:46:33.705Z,11.86
2022-09-09T23:49:40.210Z,11.86
2022-09-09T23:52:46.337Z,11.81
2022-09-09T23:55:51.676Z,11.82
2022-09-09T23:58:57.341Z,11.79
